Time;durP1;ratioP1;P1;durP2;ratioP2;P2;SDS_P1;SDS_P2;PMS_P1;PMS_P2;Temp;Humidity;BMP_temperature;BMP_pressure;BME280_temperature;BME280_humidity;BME280_pressure;Samples;Min_cycle;Max_cycle;Signal;HPM_P1;HPM_P2
2022/12/05 04:00:35;;;;;;;1.90;1.50;;;12.80;51.50;;;;;;6127734;23;46135;31
2022/12/05 04:03:09;;;;;;;1.50;1.30;;;12.80;51.60;;;;;;4921182;28;46795;-58
2022/12/05 04:05:45;;;;;;;1.23;1.10;;;12.80;51.60;;;;;;4897520;28;45614;-59
2022/12/05 04:08:20;;;;;;;1.80;1.45;;;12.80;51.60;;;;;;4912785;28;45617;-59
2022/12/05 04:10:48;;;;;;;1.48;1.25;;;12.80;51.60;;;;;;4915660;28;45541;-58
2022/12/05 04:13:17;;;;;;;1.52;1.33;;;12.80;51.60;;;;;;4933015;28;45656;-57
2022/12/05 04:18:31;;;;;;;1.20;1.08;;;12.70;51.50;;;;;;4935584;28;44675;-58
2022/12/05 04:23:41;;;;;;;2.03;1.45;;;12.80;51.60;;;;;;4942702;28;45398;-59
2022/12/05 04:26:13;;;;;;;1.38;1.27;;;12.80;51.60;;;;;;4947857;28;45739;-60
2022/12/05 04:28:49;;;;;;;1.45;1.30;;;12.80;51.50;;;;;;4933497;28;45646;-58
2022/12/05 04:31:23;;;;;;;2.03;1.40;;;12.80;51.60;;;;;;4921567;28;45682;-58
2022/12/05 04:33:54;;;;;;;1.90;1.23;;;12.80;51.60;;;;;;4929650;28;45489;-58
2022/12/05 04:36:24;;;;;;;1.90;1.50;;;12.80;51.60;;;;;;4916840;28;46410;-58
2022/12/05 04:38:59;;;;;;;2.70;1.77;;;12.80;51.50;;;;;;4941800;28;45530;-57
2022/12/05 04:41:39;;;;;;;1.95;1.23;;;12.80;51.60;;;;;;4930715;28;45316;-58
2022/12/05 04:44:09;;;;;;;1.70;1.50;;;12.80;51.50;;;;;;4934611;28;44691;-58
2022/12/05 04:46:35;;;;;;;1.20;1.10;;;12.80;51.50;;;;;;4936421;28;46005;-58
2022/12/05 04:49:01;;;;;;;1.30;1.15;;;12.80;51.50;;;;;;4924913;28;45452;-59
2022/12/05 04:51:28;;;;;;;2.13;1.60;;;12.80;51.50;;;;;;4916288;28;45589;-58
2022/12/05 04:53:59;;;;;;;1.73;1.30;;;12.80;51.50;;;;;;4935723;28;45342;-60
2022/12/05 04:56:26;;;;;;;1.05;0.95;;;12.80;51.60;;;;;;4926712;28;45577;-59
2022/12/05 04:58:52;;;;;;;1.80;1.42;;;12.80;51.50;;;;;;4931920;28;45296;-57
2022/12/05 05:01:18;;;;;;;1.45;1.20;;;12.80;51.60;;;;;;4935460;28;45555;-60
2022/12/05 05:03:57;;;;;;;2.20;1.42;;;12.80;51.60;;;;;;4938046;28;45549;-58
2022/12/05 05:06:22;;;;;;;1.58;1.27;;;12.80;51.60;;;;;;4940767;28;45410;-59
2022/12/05 05:08:50;;;;;;;1.65;1.45;;;12.70;51.60;;;;;;4951264;28;45101;-58
2022/12/05 05:11:19;;;;;;;1.38;1.20;;;12.80;51.60;;;;;;4949212;28;45510;-59
2022/12/05 05:13:45;;;;;;;1.33;1.20;;;12.70;51.60;;;;;;4953145;28;45614;-60
2022/12/05 05:16:16;;;;;;;2.03;1.45;;;12.80;51.60;;;;;;4947892;28;45838;-59
2022/12/05 05:18:43;;;;;;;1.48;1.30;;;12.70;51.50;;;;;;4974970;28;45524;-60
2022/12/05 05:21:26;;;;;;;1.65;1.30;;;12.70;51.50;;;;;;4930828;28;44985;-60
2022/12/05 05:23:52;;;;;;;1.30;1.20;;;12.80;51.60;;;;;;4954354;28;45567;-59
2022/12/05 05:26:18;;;;;;;2.15;1.50;;;12.70;51.50;;;;;;4963914;28;45249;-58
2022/12/05 05:28:44;;;;;;;1.40;1.20;;;12.80;52.20;;;;;;4967025;28;45092;-59
2022/12/05 05:31:10;;;;;;;1.38;1.20;;;12.70;51.50;;;;;;4931181;28;45335;-60
2022/12/05 05:33:36;;;;;;;1.60;1.42;;;12.70;51.50;;;;;;4965624;28;45344;-59
2022/12/05 05:36:09;;;;;;;1.30;1.08;;;12.80;52.20;;;;;;4923019;28;45482;-57
2022/12/05 05:38:35;;;;;;;;;;;12.80;51.60;;;;;;4963898;28;44918;-58
2022/12/05 05:41:01;;;;;;;1.77;1.48;;;12.80;51.60;;;;;;4965736;28;45536;-59
2022/12/05 05:43:27;;;;;;;1.20;1.10;;;12.70;51.60;;;;;;4950311;28;45632;-58
2022/12/05 05:45:52;;;;;;;2.03;1.50;;;12.70;51.60;;;;;;4981523;28;45975;-58
2022/12/05 05:48:18;;;;;;;2.10;1.58;;;12.70;51.60;;;;;;4967376;28;44909;-59
2022/12/05 05:50:43;;;;;;;1.30;1.20;;;12.80;51.60;;;;;;4967546;28;45567;-59
2022/12/05 05:53:09;;;;;;;1.98;1.48;;;12.80;51.50;;;;;;4954531;28;45566;-59
2022/12/05 05:55:34;;;;;;;1.40;1.27;;;12.70;51.50;;;;;;4974788;28;45578;-59
2022/12/05 05:58:00;;;;;;;1.15;1.05;;;12.70;51.60;;;;;;4945126;28;45444;-59
2022/12/05 06:00:25;;;;;;;1.55;1.20;;;12.70;51.60;;;;;;4965166;28;45168;-59
2022/12/05 06:02:51;;;;;;;1.67;1.40;;;12.70;51.60;;;;;;4946967;28;45569;-60
2022/12/05 06:05:16;;;;;;;1.65;1.25;;;12.70;51.50;;;;;;4953879;28;45397;-58
2022/12/05 06:07:42;;;;;;;1.80;1.30;;;12.70;51.50;;;;;;4965792;28;45347;-56
2022/12/05 06:10:08;;;;;;;1.75;1.45;;;12.70;51.60;;;;;;4973605;28;45173;-59
2022/12/05 06:12:33;;;;;;;1.42;1.23;;;12.70;51.60;;;;;;4971465;28;45612;-60
2022/12/05 06:14:59;;;;;;;1.63;1.50;;;12.70;51.50;;;;;;4970113;28;45278;-58
2022/12/05 06:17:24;;;;;;;1.60;1.38;;;12.70;51.60;;;;;;4970922;28;45583;-58
2022/12/05 06:19:50;;;;;;;2.35;1.42;;;12.70;51.50;;;;;;4970842;28;45369;-59
2022/12/05 06:22:15;;;;;;;1.45;1.25;;;12.70;51.50;;;;;;4969603;28;45162;-59
2022/12/05 06:24:41;;;;;;;1.63;1.20;;;12.70;51.60;;;;;;4952408;28;45415;-59
2022/12/05 06:27:07;;;;;;;1.20;1.10;;;12.70;51.50;;;;;;4968861;28;45036;-60
2022/12/05 06:29:33;;;;;;;1.40;1.30;;;12.70;51.50;;;;;;4951758;28;45187;-57
2022/12/05 06:31:58;;;;;;;1.50;1.20;;;12.70;51.50;;;;;;4953455;28;45178;-58
2022/12/05 06:34:24;;;;;;;1.63;1.38;;;12.70;51.50;;;;;;4955024;28;45555;-59
2022/12/05 06:36:50;;;;;;;1.33;1.23;;;12.70;51.50;;;;;;4949529;28;45515;-59
2022/12/05 06:39:15;;;;;;;1.27;1.17;;;12.80;51.50;;;;;;4961442;28;45013;-60
2022/12/05 06:41:41;;;;;;;1.77;1.50;;;12.80;51.50;;;;;;4963303;28;44903;-57
2022/12/05 06:44:06;;;;;;;1.20;1.10;;;12.80;51.50;;;;;;4966418;28;45135;-59
2022/12/05 06:46:32;;;;;;;1.73;1.42;;;12.70;51.50;;;;;;4952204;28;45292;-58
2022/12/05 06:48:57;;;;;;;1.88;1.48;;;12.70;51.50;;;;;;4944777;28;44949;-60
2022/12/05 06:51:23;;;;;;;1.27;1.17;;;12.70;51.50;;;;;;4936011;28;45240;-60
2022/12/05 06:53:49;;;;;;;2.40;1.75;;;12.70;51.50;;;;;;4951952;28;46885;-59
2022/12/05 06:56:16;;;;;;;1.98;1.25;;;12.70;51.50;;;;;;4968714;28;44697;-59
2022/12/05 06:58:43;;;;;;;1.73;1.38;;;12.70;51.50;;;;;;4955124;28;45267;-59
2022/12/05 07:03:55;;;;;;;6.80;4.90;;;12.70;51.50;;;;;;4952296;28;45529;-59
2022/12/05 07:06:20;;;;;;;8.87;6.77;;;12.90;51.20;;;;;;4932636;28;45851;-59
2022/12/05 07:08:46;;;;;;;10.00;8.23;;;13.00;51.00;;;;;;4969998;28;45399;-58
2022/12/05 07:11:11;;;;;;;11.25;7.90;;;13.00;51.00;;;;;;4970923;28;45005;-61
2022/12/05 07:13:37;;;;;;;10.13;7.60;;;13.10;50.90;;;;;;4949040;28;47436;-56
2022/12/05 07:16:05;;;;;;;9.17;6.53;;;13.20;51.30;;;;;;4969476;28;45631;-58
2022/12/05 07:18:31;;;;;;;8.63;6.37;;;13.40;50.70;;;;;;4949577;28;45800;-56
2022/12/05 07:20:58;;;;;;;8.65;5.78;;;13.50;50.30;;;;;;4953534;28;44852;-58
2022/12/05 07:23:23;;;;;;;9.70;5.93;;;13.80;50.10;;;;;;4942647;28;46076;-56
2022/12/05 07:25:49;;;;;;;7.53;5.63;;;14.00;49.70;;;;;;4963957;28;44903;-58
2022/12/05 07:28:14;;;;;;;6.67;5.10;;;14.20;49.50;;;;;;4958924;28;45479;-59
2022/12/05 07:30:40;;;;;;;6.17;4.50;;;14.40;49.20;;;;;;4945129;28;45038;-58
2022/12/05 07:33:05;;;;;;;5.73;4.50;;;14.60;49.00;;;;;;4967038;28;45608;-58
2022/12/05 07:35:31;;;;;;;5.75;4.40;;;14.70;48.70;;;;;;4967513;28;45609;-60
2022/12/05 07:37:57;;;;;;;6.17;4.33;;;14.90;48.50;;;;;;4959738;28;45263;-59
2022/12/05 07:40:23;;;;;;;6.32;4.20;;;15.10;48.20;;;;;;4961778;28;44937;-60
2022/12/05 07:42:49;;;;;;;6.57;3.83;;;15.30;48.00;;;;;;4940591;28;45515;-62
2022/12/05 07:45:14;;;;;;;4.63;3.67;;;15.40;47.80;;;;;;4963179;28;45239;-60
2022/12/05 07:47:40;;;;;;;4.57;3.57;;;15.60;47.60;;;;;;4951224;28;45202;-59
2022/12/05 07:50:06;;;;;;;4.70;3.57;;;15.80;47.40;;;;;;4968200;28;45679;-60
2022/12/05 07:52:31;;;;;;;5.15;3.38;;;15.90;47.20;;;;;;4969486;28;45356;-59
2022/12/05 07:54:57;;;;;;;4.87;3.50;;;16.00;46.90;;;;;;4944072;28;45360;-60
2022/12/05 07:57:23;;;;;;;4.20;3.33;;;16.10;46.90;;;;;;4968050;28;45515;-59
2022/12/05 07:59:48;;;;;;;3.92;3.10;;;16.20;46.80;;;;;;4961325;28;45754;-59
2022/12/05 08:02:14;;;;;;;5.32;3.25;;;16.30;46.70;;;;;;4967913;28;47020;-60
2022/12/05 08:04:39;;;;;;;4.83;3.40;;;16.50;46.60;;;;;;4969833;28;45521;-60
2022/12/05 08:07:05;;;;;;;5.33;2.83;;;16.60;46.40;;;;;;4951184;28;45227;-60
2022/12/05 08:09:30;;;;;;;4.13;2.90;;;16.80;46.20;;;;;;4955506;28;45543;-60
2022/12/05 08:11:56;;;;;;;4.35;2.95;;;17.00;46.00;;;;;;4969947;28;45441;-61
2022/12/05 08:14:22;;;;;;;3.58;3.00;;;17.10;45.80;;;;;;4947845;28;45240;-58
2022/12/05 08:16:48;;;;;;;5.20;2.97;;;17.20;45.60;;;;;;4968994;28;45349;-59
2022/12/05 08:19:15;;;;;;;3.57;2.60;;;17.40;45.40;;;;;;4967185;28;44745;-60
2022/12/05 08:21:41;;;;;;;4.97;2.72;;;17.60;45.20;;;;;;4967462;28;46214;-60
2022/12/05 08:24:07;;;;;;;4.10;2.63;;;17.70;45.00;;;;;;4964862;28;45550;-60
2022/12/05 08:26:33;;;;;;;4.20;2.83;;;17.90;44.90;;;;;;4945626;28;45148;-61
2022/12/05 08:29:00;;;;;;;2.90;2.50;;;18.00;44.60;;;;;;4952124;28;45399;-59
2022/12/05 08:31:27;;;;;;;3.63;2.50;;;18.10;44.40;;;;;;4934542;28;47069;-60
2022/12/05 08:33:54;;;;;;;4.35;2.20;;;18.30;44.30;;;;;;4937797;28;45220;-61
2022/12/05 08:36:20;;;;;;;3.58;2.50;;;18.40;44.20;;;;;;4931559;28;45418;-61
2022/12/05 08:38:46;;;;;;;2.83;2.33;;;18.40;44.00;;;;;;4931872;28;45609;-59
2022/12/05 08:41:13;;;;;;;2.97;2.40;;;18.50;44.00;;;;;;4948300;28;45938;-60
2022/12/05 08:43:39;;;;;;;3.50;2.50;;;18.50;43.90;;;;;;4950622;28;44888;-60
2022/12/05 08:46:04;;;;;;;2.67;2.45;;;18.60;43.90;;;;;;4946639;28;45597;-61
2022/12/05 08:48:31;;;;;;;3.88;2.13;;;18.80;43.70;;;;;;4950896;28;44985;-60
2022/12/05 08:50:56;;;;;;;2.97;2.33;;;18.90;43.60;;;;;;4949029;28;45673;-60
2022/12/05 08:53:22;;;;;;;3.93;2.23;;;19.00;43.50;;;;;;4948873;28;45535;-60
2022/12/05 08:55:47;;;;;;;2.53;2.17;;;19.20;43.40;;;;;;4963584;28;44956;-60
2022/12/05 08:58:13;;;;;;;3.40;2.20;;;19.30;43.20;;;;;;4947103;28;45507;-59
2022/12/05 09:00:39;;;;;;;2.95;2.42;;;19.40;43.00;;;;;;4965250;28;45266;-61
2022/12/05 09:03:05;;;;;;;3.05;2.28;;;19.50;42.80;;;;;;4962583;28;45232;-61
2022/12/05 09:05:30;;;;;;;3.80;2.50;;;19.70;42.70;;;;;;4955888;28;45012;-61
2022/12/05 09:07:56;;;;;;;3.70;2.40;;;19.80;42.50;;;;;;4949368;28;45641;-61
2022/12/05 09:10:21;;;;;;;3.00;2.17;;;19.90;42.40;;;;;;4940823;28;45312;-60
2022/12/05 09:12:49;;;;;;;3.13;1.98;;;20.00;42.20;;;;;;4930523;28;45285;-60
2022/12/05 09:15:14;;;;;;;2.50;2.10;;;20.10;42.10;;;;;;4959738;28;44629;-62
2022/12/05 09:17:40;;;;;;;2.90;2.10;;;20.30;42.00;;;;;;4955060;28;44689;-60
2022/12/05 09:20:06;;;;;;;4.15;2.20;;;20.30;41.90;;;;;;4963103;28;45177;-62
2022/12/05 09:22:32;;;;;;;4.47;2.07;;;20.40;41.80;;;;;;4963482;28;44899;-60
2022/12/05 09:24:59;;;;;;;2.38;2.00;;;20.40;41.60;;;;;;4954220;28;45583;-62
2022/12/05 09:27:25;;;;;;;2.53;1.93;;;20.40;41.70;;;;;;4940746;28;45596;-62
2022/12/05 09:29:50;;;;;;;3.17;2.10;;;20.50;41.70;;;;;;4943360;28;45501;-62
2022/12/05 09:32:16;;;;;;;2.13;1.92;;;20.50;41.70;;;;;;4946135;28;45129;-62
2022/12/05 09:34:41;;;;;;;2.20;2.00;;;20.60;41.60;;;;;;4943574;28;45558;-60
2022/12/05 09:37:07;;;;;;;2.38;1.77;;;20.70;41.50;;;;;;4956259;28;45218;-60
2022/12/05 09:39:35;;;;;;;2.17;1.87;;;20.80;41.50;;;;;;4968244;28;46582;-61
2022/12/05 09:42:17;;;;;;;2.88;1.50;;;20.90;41.30;;;;;;4963759;28;45129;-59
2022/12/05 09:45:03;;;;;;;3.80;2.05;;;21.00;41.20;;;;;;4951169;28;45582;-58
2022/12/05 09:47:41;;;;;;;2.60;1.95;;;21.20;41.10;;;;;;4946370;28;45322;-59
2022/12/05 09:50:27;;;;;;;3.35;1.67;;;21.30;40.90;;;;;;4967565;28;45580;-60
2022/12/05 09:53:07;;;;;;;2.13;1.90;;;21.40;40.90;;;;;;4938780;28;44995;-61
2022/12/05 09:55:39;;;;;;;2.40;1.88;;;21.50;40.80;;;;;;4955318;28;45250;-61
2022/12/05 09:58:04;;;;;;;2.47;1.90;;;21.60;40.60;;;;;;4952319;28;45979;-60
2022/12/05 10:00:30;;;;;;;2.93;1.70;;;21.60;40.50;;;;;;4934704;28;45526;-61
2022/12/05 10:03:18;;;;;;;2.20;1.97;;;21.70;40.40;;;;;;4933719;28;45443;-61
2022/12/05 10:05:59;;;;;;;3.25;1.80;;;21.80;40.90;;;;;;4932376;28;45072;-60
2022/12/05 10:08:37;;;;;;;2.92;1.77;;;21.90;40.20;;;;;;4959110;28;44840;-61
2022/12/05 10:11:42;;;;;;;2.22;1.63;;;22.00;40.10;;;;;;4952678;28;45572;-61
2022/12/05 10:14:24;;;;;;;1.90;1.67;;;22.10;40.00;;;;;;4947506;28;45503;-61
2022/12/05 10:16:53;;;;;;;3.00;1.70;;;22.10;39.80;;;;;;4949499;28;45327;-61
2022/12/05 10:19:23;;;;;;;2.97;1.80;;;22.10;39.80;;;;;;4938173;28;44946;-61
2022/12/05 10:22:22;;;;;;;2.13;1.60;;;22.10;39.80;;;;;;4919947;28;45539;-62
2022/12/05 10:24:50;;;;;;;3.00;1.60;;;22.10;40.00;;;;;;4931721;28;44834;-61
2022/12/05 10:27:19;;;;;;;2.43;1.67;;;22.10;40.00;;;;;;4951940;28;44959;-62
2022/12/05 10:29:56;;;;;;;1.80;1.50;;;22.20;40.00;;;;;;4965067;28;45310;-62
2022/12/05 10:32:29;;;;;;;1.83;1.70;;;22.30;39.90;;;;;;4934587;28;45696;-61
2022/12/05 10:35:00;;;;;;;1.70;1.50;;;22.40;39.80;;;;;;4944773;28;45026;-61
2022/12/05 10:37:29;;;;;;;3.10;1.70;;;22.50;39.70;;;;;;4959550;28;45307;-62
2022/12/05 10:39:55;;;;;;;3.88;1.92;;;22.50;39.60;;;;;;4945294;28;45626;-61
2022/12/05 10:42:25;;;;;;;1.70;1.60;;;22.60;39.50;;;;;;4935996;28;46354;-60
2022/12/05 10:44:56;;;;;;;3.33;1.45;;;22.70;39.50;;;;;;4944539;28;45471;-61
2022/12/05 10:47:22;;;;;;;2.45;1.80;;;22.80;39.50;;;;;;4947826;28;45362;-63
2022/12/05 10:49:47;;;;;;;2.90;1.70;;;22.80;39.30;;;;;;4944773;28;45043;-61
2022/12/05 10:52:13;;;;;;;1.60;1.40;;;22.90;39.30;;;;;;4948536;28;45160;-62
2022/12/05 10:54:43;;;;;;;1.53;1.40;;;23.00;39.30;;;;;;4916463;28;45196;-62
2022/12/05 10:57:26;;;;;;;1.80;1.60;;;23.00;39.30;;;;;;4938699;28;44687;-62
2022/12/05 10:59:52;;;;;;;3.03;1.60;;;23.10;39.20;;;;;;4958674;28;45438;-62
2022/12/05 11:02:26;;;;;;;2.00;1.60;;;23.10;39.20;;;;;;4937250;28;45919;-62
2022/12/05 11:04:52;;;;;;;2.15;1.67;;;23.20;39.20;;;;;;4966675;28;45200;-62
2022/12/05 11:07:43;;;;;;;1.77;1.47;;;23.20;39.20;;;;;;4949642;28;45665;-61
2022/12/05 11:10:27;;;;;;;1.70;1.50;;;23.30;39.20;;;;;;4945137;28;45516;-61
2022/12/05 11:12:54;;;;;;;1.50;1.40;;;23.30;39.00;;;;;;4961831;28;45235;-61
2022/12/05 11:15:24;;;;;;;3.10;1.70;;;23.30;39.00;;;;;;4958735;28;45355;-61
2022/12/05 11:17:50;;;;;;;2.15;1.60;;;23.30;39.00;;;;;;4938928;28;45618;-60
2022/12/05 11:20:19;;;;;;;2.80;1.50;;;23.40;39.00;;;;;;4937730;28;45069;-61
2022/12/05 11:22:49;;;;;;;2.07;1.60;;;23.40;38.90;;;;;;4965914;28;46295;-60
2022/12/05 11:25:24;;;;;;;3.05;1.33;;;23.40;38.80;;;;;;4971844;28;45235;-60
2022/12/05 11:27:50;;;;;;;2.03;1.55;;;23.50;38.80;;;;;;4950928;28;44687;-60
2022/12/05 11:30:21;;;;;;;2.38;1.50;;;23.50;38.80;;;;;;4967655;28;45356;-60
2022/12/05 11:32:46;;;;;;;2.35;1.45;;;23.50;38.70;;;;;;4960486;28;46691;-60
2022/12/05 11:35:12;;;;;;;1.50;1.40;;;23.50;38.60;;;;;;4965766;28;44841;-61
2022/12/05 11:37:54;;;;;;;1.60;1.50;;;23.50;38.50;;;;;;4966669;28;45495;-60
2022/12/05 11:40:38;;;;;;;1.83;1.60;;;23.40;38.70;;;;;;4970904;28;44956;-61
2022/12/05 11:43:36;;;;;;;1.77;1.55;;;23.30;38.90;;;;;;4961129;28;45260;-61
2022/12/05 11:46:46;;;;;;;1.50;1.40;;;23.30;39.00;;;;;;4954410;28;45262;-61
2022/12/05 11:49:31;;;;;;;1.70;1.47;;;23.30;38.90;;;;;;4935606;28;45209;-61
2022/12/05 11:52:17;;;;;;;1.90;1.57;;;23.50;38.90;;;;;;4960303;28;45746;-63
2022/12/05 11:55:20;;;;;;;1.67;1.45;;;23.50;38.80;;;;;;4947271;28;45642;-61
2022/12/05 11:57:46;;;;;;;1.48;1.38;;;23.50;38.70;;;;;;4883915;29;45336;-61
2022/12/05 12:00:35;;;;;;;1.60;1.50;;;23.60;38.80;;;;;;4947878;28;44868;-61
2022/12/05 12:03:03;;;;;;;2.00;1.45;;;23.60;38.80;;;;;;4947192;28;45405;-61
2022/12/05 12:06:04;;;;;;;1.70;1.60;;;23.70;38.70;;;;;;4958696;28;45552;-62
2022/12/05 12:08:33;;;;;;;1.50;1.40;;;23.70;38.70;;;;;;4900100;28;45153;-60
2022/12/05 12:11:08;;;;;;;2.50;1.30;;;23.80;38.70;;;;;;4931963;28;44734;-62
2022/12/05 12:13:46;;;;;;;1.60;1.38;;;23.80;38.60;;;;;;4957585;28;44751;-59
2022/12/05 12:16:20;;;;;;;2.42;1.40;;;23.90;38.70;;;;;;4939904;28;45202;-60
2022/12/05 12:19:07;;;;;;;2.17;1.35;;;24.00;38.60;;;;;;4937779;28;45212;-61
2022/12/05 12:21:54;;;;;;;2.42;1.33;;;24.00;38.60;;;;;;4928799;28;45486;-60
2022/12/05 12:24:20;;;;;;;1.70;1.40;;;24.10;38.60;;;;;;4946771;28;44708;-61
2022/12/05 12:26:56;;;;;;;2.20;1.48;;;24.10;38.50;;;;;;4950022;28;45546;-61
2022/12/05 12:29:32;;;;;;;1.70;1.30;;;24.10;38.40;;;;;;4949060;28;45431;-60
2022/12/05 12:32:16;;;;;;;2.23;1.40;;;24.20;38.50;;;;;;4942165;28;45411;-61
2022/12/05 12:34:59;;;;;;;2.10;1.40;;;24.20;38.40;;;;;;4951283;28;45466;-61
2022/12/05 12:37:43;;;;;;;2.13;1.30;;;24.20;38.30;;;;;;4950602;28;45553;-60
2022/12/05 12:40:21;;;;;;;2.58;1.27;;;24.30;38.40;;;;;;4949197;28;44781;-61
2022/12/05 12:42:59;;;;;;;1.35;1.25;;;24.40;38.30;;;;;;4945043;28;45662;-61
2022/12/05 12:45:54;;;;;;;2.03;1.20;;;24.40;38.30;;;;;;4945598;28;45346;-61
2022/12/05 12:48:32;;;;;;;2.50;1.40;;;24.50;38.30;;;;;;4935850;28;46025;-61
2022/12/05 12:50:58;;;;;;;1.40;1.30;;;24.50;38.20;;;;;;4932659;28;45478;-62
2022/12/05 12:53:29;;;;;;;1.50;1.30;;;24.50;38.20;;;;;;4918815;28;45514;-58
2022/12/05 12:56:10;;;;;;;1.50;1.30;;;24.60;38.20;;;;;;4960218;28;45468;-57
2022/12/05 12:58:41;;;;;;;2.53;1.20;;;24.60;38.20;;;;;;4933603;28;45673;-57
2022/12/05 13:01:13;;;;;;;1.27;1.00;;;24.60;38.20;;;;;;4953743;28;45612;-53
2022/12/05 13:03:49;;;;;;;2.10;1.30;;;24.60;38.20;;;;;;4951786;28;44714;-57
2022/12/05 13:06:42;;;;;;;1.37;1.10;;;24.60;38.30;;;;;;4950720;28;45660;-56
2022/12/05 13:09:20;;;;;;;1.67;1.30;;;24.70;38.30;;;;;;4953639;28;45427;-55
2022/12/05 13:11:46;;;;;;;1.88;1.38;;;24.70;38.30;;;;;;4938100;28;44999;-56
2022/12/05 13:14:13;;;;;;;1.87;1.37;;;24.70;38.30;;;;;;4958827;28;45224;-56
2022/12/05 13:16:47;;;;;;;1.80;1.08;;;24.70;38.30;;;;;;4957060;28;45468;-52
2022/12/05 13:19:27;;;;;;;1.40;1.30;;;24.70;38.30;;;;;;4956790;28;46987;-53
2022/12/05 13:21:55;;;;;;;1.20;1.10;;;24.70;38.30;;;;;;4919843;28;45643;-53
2022/12/05 13:24:22;;;;;;;1.70;1.10;;;24.70;38.30;;;;;;4964615;28;45281;-57
2022/12/05 13:26:48;;;;;;;1.30;1.20;;;24.80;38.30;;;;;;4975069;28;45610;-60
2022/12/05 13:29:25;;;;;;;1.37;1.20;;;24.80;38.40;;;;;;4957631;28;45591;-59
2022/12/05 13:31:51;;;;;;;1.67;1.13;;;24.80;38.30;;;;;;4965094;28;45199;-58
2022/12/05 13:34:45;;;;;;;1.30;1.20;;;24.80;38.30;;;;;;4977246;28;45301;-53
2022/12/05 13:43:18;;;;;;;1.20;1.10;;;24.90;38.30;;;;;;4963975;28;45196;-56
2022/12/05 13:46:07;;;;;;;1.40;1.20;;;24.90;38.30;;;;;;4977758;28;45364;-54
2022/12/05 13:48:34;;;;;;;1.63;1.23;;;24.90;38.30;;;;;;4958348;28;45623;-53
2022/12/05 13:51:08;;;;;;;1.48;1.20;;;24.80;38.20;;;;;;4952513;28;46076;-54
2022/12/05 13:53:39;;;;;;;1.48;1.38;;;24.80;38.20;;;;;;4955420;28;45658;-56
2022/12/05 13:56:12;;;;;;;1.50;1.20;;;24.70;38.50;;;;;;4939593;28;45287;-56
2022/12/05 13:58:42;;;;;;;1.55;1.17;;;24.60;38.60;;;;;;4964065;28;45493;-58
2022/12/05 14:01:26;;;;;;;1.60;1.27;;;24.60;38.70;;;;;;4977894;28;46217;-61
2022/12/05 14:03:58;;;;;;;1.57;1.10;;;24.60;38.70;;;;;;4973418;28;45075;-60
2022/12/05 14:06:39;;;;;;;1.27;1.13;;;24.70;38.80;;;;;;4978063;28;44807;-54
2022/12/05 14:09:27;;;;;;;1.58;1.20;;;24.70;38.80;;;;;;4975229;28;45267;-57
2022/12/05 14:12:11;;;;;;;1.20;1.10;;;24.80;38.80;;;;;;4944473;28;46321;-53
2022/12/05 14:14:59;;;;;;;1.08;1.02;;;24.80;38.70;;;;;;4963823;28;44921;-52
2022/12/05 14:17:43;;;;;;;1.13;1.02;;;24.80;38.70;;;;;;4972970;28;45603;-55
2022/12/05 14:20:14;;;;;;;1.10;1.00;;;24.80;38.60;;;;;;4956105;28;45212;-60
2022/12/05 14:23:01;;;;;;;1.25;1.05;;;24.80;38.60;;;;;;4966714;28;45333;-59
2022/12/05 14:26:06;;;;;;;1.40;1.30;;;24.90;38.70;;;;;;4963870;28;45531;-57
2022/12/05 14:29:00;;;;;;;1.08;1.00;;;24.90;38.60;;;;;;4965653;28;45537;-59
2022/12/05 14:31:58;;;;;;;1.38;1.10;;;25.00;38.60;;;;;;4954183;28;45726;-57
2022/12/05 14:34:26;;;;;;;1.10;1.00;;;25.00;38.60;;;;;;4964609;28;46016;-58
2022/12/05 14:37:23;;;;;;;1.05;0.95;;;25.00;38.60;;;;;;4951173;28;45512;-59
2022/12/05 14:39:51;;;;;;;2.15;1.20;;;25.00;38.50;;;;;;4971669;28;45585;-54
2022/12/05 14:42:31;;;;;;;1.10;1.00;;;25.10;38.50;;;;;;4950384;28;45275;-59
2022/12/05 14:44:58;;;;;;;1.08;0.98;;;25.10;38.50;;;;;;4969554;28;45379;-55
2022/12/05 14:47:26;;;;;;;1.52;1.15;;;25.10;38.50;;;;;;4948114;28;45300;-59
2022/12/05 14:50:03;;;;;;;1.27;1.10;;;25.10;38.50;;;;;;4933622;28;45534;-54
2022/12/05 14:52:29;;;;;;;2.40;1.05;;;25.10;38.60;;;;;;4955614;28;44956;-61
2022/12/05 14:55:11;;;;;;;1.13;1.02;;;25.10;38.50;;;;;;4947156;28;46670;-58
2022/12/05 14:57:44;;;;;;;1.20;1.00;;;25.10;38.60;;;;;;4955668;28;44753;-63
2022/12/05 15:00:16;;;;;;;1.40;1.30;;;25.10;38.60;;;;;;4929399;28;45578;-59
2022/12/05 15:02:44;;;;;;;1.10;1.00;;;25.10;38.70;;;;;;4950552;28;45365;-57
2022/12/05 15:05:26;;;;;;;1.30;1.20;;;25.10;38.60;;;;;;4934742;28;45849;-56
2022/12/05 15:07:52;;;;;;;1.52;1.05;;;25.10;38.70;;;;;;4948470;28;45228;-59
2022/12/05 15:10:22;;;;;;;1.13;0.90;;;25.10;38.70;;;;;;4947050;28;44903;-56
2022/12/05 15:13:07;;;;;;;1.40;1.17;;;25.10;38.70;;;;;;4968852;28;45335;-58
2022/12/05 15:15:38;;;;;;;1.20;1.10;;;25.10;38.70;;;;;;4936927;28;45555;-60
2022/12/05 15:18:16;;;;;;;1.45;1.27;;;25.10;38.80;;;;;;4962907;28;45346;-53
2022/12/05 15:20:56;;;;;;;1.27;1.10;;;25.10;38.70;;;;;;4917952;28;45210;-58
2022/12/05 15:23:48;;;;;;;1.20;1.10;;;25.10;38.70;;;;;;4955799;28;45027;-51
2022/12/05 15:26:24;;;;;;;2.67;1.17;;;25.10;38.80;;;;;;4947018;28;46242;-53
2022/12/05 15:29:02;;;;;;;1.25;1.08;;;25.10;38.80;;;;;;4955473;28;45518;-56
2022/12/05 15:31:31;;;;;;;1.30;1.10;;;25.10;38.80;;;;;;4970833;28;45454;-52
2022/12/05 15:33:59;;;;;;;1.25;1.00;;;25.10;38.90;;;;;;4954060;28;45756;-61
2022/12/05 15:36:36;;;;;;;1.20;1.02;;;25.10;38.90;;;;;;4947471;28;46141;-61
2022/12/05 15:39:24;;;;;;;1.10;0.90;;;25.10;38.90;;;;;;4952339;28;45428;-59
2022/12/05 15:41:50;;;;;;;1.10;1.00;;;25.10;38.90;;;;;;4970670;28;45326;-60
2022/12/05 15:44:17;;;;;;;1.00;0.90;;;25.10;38.90;;;;;;4968943;28;45422;-55
2022/12/05 15:46:43;;;;;;;0.90;0.90;;;25.10;38.90;;;;;;4955245;28;45574;-56
2022/12/05 15:49:25;;;;;;;1.10;1.00;;;25.10;38.90;;;;;;4954849;28;44813;-55
2022/12/05 15:52:07;;;;;;;1.20;1.03;;;25.10;38.90;;;;;;4967415;28;45523;-55
2022/12/05 15:54:33;;;;;;;1.00;0.90;;;25.20;39.60;;;;;;4932860;28;45527;-54
2022/12/05 15:57:05;;;;;;;1.07;0.90;;;25.20;39.00;;;;;;4936627;28;45439;-53
2022/12/05 16:00:05;;;;;;;1.10;1.00;;;25.20;39.00;;;;;;4933109;28;45250;-58
2022/12/05 16:02:40;;;;;;;1.08;0.98;;;25.20;39.00;;;;;;4966539;28;45424;-60
2022/12/05 16:05:18;;;;;;;1.10;0.95;;;25.20;39.00;;;;;;4963945;28;45151;-57
2022/12/05 16:07:43;;;;;;;1.15;0.82;;;25.20;39.00;;;;;;4937766;28;45648;-58
2022/12/05 16:10:11;;;;;;;1.30;1.10;;;25.20;39.00;;;;;;4946550;28;45055;-57
2022/12/05 16:12:38;;;;;;;1.10;1.00;;;25.20;39.00;;;;;;4970852;28;45549;-57
2022/12/05 16:15:10;;;;;;;1.52;1.00;;;25.20;39.00;;;;;;4950747;28;45405;-55
2022/12/05 16:17:45;;;;;;;1.30;1.20;;;25.20;39.10;;;;;;4953534;28;45516;-57
2022/12/05 16:20:16;;;;;;;1.40;0.90;;;25.20;39.00;;;;;;4952774;28;45276;-61
2022/12/05 16:22:49;;;;;;;1.00;0.90;;;25.30;39.10;;;;;;4965625;28;45247;-55
2022/12/05 16:25:22;;;;;;;2.60;1.07;;;25.30;39.10;;;;;;4951676;28;44916;-54
2022/12/05 16:28:02;;;;;;;1.15;1.05;;;25.30;39.10;;;;;;4953725;28;46357;-59
2022/12/05 16:30:29;;;;;;;1.85;1.02;;;25.30;39.70;;;;;;4945676;28;45589;-58
2022/12/05 16:33:05;;;;;;;1.50;1.17;;;25.30;39.10;;;;;;4937956;28;45416;-57
2022/12/05 16:35:32;;;;;;;1.23;1.10;;;25.30;39.10;;;;;;4921372;28;45334;-58
2022/12/05 16:38:12;;;;;;;1.20;1.10;;;25.30;39.10;;;;;;4965252;28;46046;-57
2022/12/05 16:40:49;;;;;;;1.23;1.00;;;25.30;39.10;;;;;;4947082;28;45479;-59
2022/12/05 16:43:39;;;;;;;1.00;0.90;;;25.30;39.10;;;;;;4950033;28;45059;-58
2022/12/05 16:46:13;;;;;;;1.03;0.90;;;25.40;39.20;;;;;;4964721;28;45202;-56
2022/12/05 16:48:43;;;;;;;1.42;1.00;;;25.30;39.10;;;;;;4973200;28;45440;-51
2022/12/05 16:51:16;;;;;;;1.02;0.93;;;25.20;39.60;;;;;;4969926;28;45405;-58
2022/12/05 16:53:46;;;;;;;1.50;1.20;;;25.10;39.10;;;;;;4957407;28;45979;-54
2022/12/05 16:56:17;;;;;;;0.93;0.90;;;25.00;39.20;;;;;;4944469;28;45718;-57
2022/12/05 16:58:43;;;;;;;1.13;1.00;;;24.90;39.30;;;;;;4940986;28;46971;-56
2022/12/05 17:01:20;;;;;;;1.33;1.20;;;24.80;39.40;;;;;;4978075;28;45142;-55
2022/12/05 17:03:46;;;;;;;1.87;1.30;;;24.70;39.60;;;;;;4963830;28;45496;-60
2022/12/05 17:06:12;;;;;;;1.35;1.25;;;24.60;39.70;;;;;;4948430;28;44925;-60
2022/12/05 17:08:37;;;;;;;1.13;1.02;;;24.50;39.90;;;;;;4954243;28;45562;-57
2022/12/05 17:11:06;;;;;;;1.40;1.10;;;24.40;40.00;;;;;;4962738;28;45218;-56
2022/12/05 17:13:31;;;;;;;0.82;0.82;;;24.40;40.10;;;;;;4931890;28;45220;-59
2022/12/05 17:15:57;;;;;;;1.13;1.00;;;24.20;40.20;;;;;;4964615;28;46723;-54
2022/12/05 17:18:23;;;;;;;1.20;1.10;;;24.10;40.20;;;;;;4964468;28;46150;-56
2022/12/05 17:20:52;;;;;;;0.82;0.82;;;24.10;40.40;;;;;;4956678;28;44688;-57
2022/12/05 17:23:18;;;;;;;1.58;1.00;;;24.00;40.50;;;;;;4956813;28;45230;-64
2022/12/05 17:25:54;;;;;;;1.20;0.93;;;23.90;40.60;;;;;;4952239;28;45625;-58